sensor_id;sensor_type;location;lat;lon;timestamp;pressure;altitude;pressure_sealevel;temperature;humidity
36600;BME280;35385;55.668;37.508;2023-04-23T00:00:26;99012.28;;;10.66;92.46
36600;BME280;35385;55.668;37.508;2023-04-23T00:01:27;99006.22;;;10.54;92.65
36600;BME280;35385;55.668;37.508;2023-04-23T00:02:28;99000.03;;;10.54;92.33
36600;BME280;35385;55.668;37.508;2023-04-23T00:03:33;99001.72;;;10.55;92.91
36600;BME280;35385;55.668;37.508;2023-04-23T00:04:36;99000.34;;;10.51;91.93
36600;BME280;35385;55.668;37.508;2023-04-23T00:05:37;99010.44;;;10.57;92.19
36600;BME280;35385;55.668;37.508;2023-04-23T00:06:38;99007.78;;;10.57;91.96
36600;BME280;35385;55.668;37.508;2023-04-23T00:07:40;99017.75;;;10.65;92.50
36600;BME280;35385;55.668;37.508;2023-04-23T00:08:41;98947.13;;;10.20;92.84
36600;BME280;35385;55.668;37.508;2023-04-23T00:09:42;98999.19;;;10.53;93.28
36600;BME280;35385;55.668;37.508;2023-04-23T00:10:43;99012.13;;;10.58;92.78
36600;BME280;35385;55.668;37.508;2023-04-23T00:11:44;98967.34;;;10.33;93.18
36600;BME280;35385;55.668;37.508;2023-04-23T00:12:45;98999.50;;;10.50;93.11
36600;BME280;35385;55.668;37.508;2023-04-23T00:13:45;99015.66;;;10.58;92.78
36600;BME280;35385;55.668;37.508;2023-04-23T00:14:48;99011.84;;;10.61;92.29
36600;BME280;35385;55.668;37.508;2023-04-23T00:15:49;98950.78;;;10.19;91.93
36600;BME280;35385;55.668;37.508;2023-04-23T00:16:51;99024.50;;;10.59;91.86
36600;BME280;35385;55.668;37.508;2023-04-23T00:17:51;99024.22;;;10.62;91.95
36600;BME280;35385;55.668;37.508;2023-04-23T00:18:52;99007.94;;;10.46;92.33
36600;BME280;35385;55.668;37.508;2023-04-23T00:19:53;99009.34;;;10.50;92.50
36600;BME280;35385;55.668;37.508;2023-04-23T00:20:53;98973.22;;;10.26;92.79
36600;BME280;35385;55.668;37.508;2023-04-23T00:21:54;99032.38;;;10.51;93.07
36600;BME280;35385;55.668;37.508;2023-04-23T00:22:55;98972.50;;;10.15;94.69
36600;BME280;35385;55.668;37.508;2023-04-23T00:23:56;99014.69;;;10.50;95.09
36600;BME280;35385;55.668;37.508;2023-04-23T00:24:56;98966.06;;;10.27;93.52
36600;BME280;35385;55.668;37.508;2023-04-23T00:25:57;99005.97;;;10.48;93.42
36600;BME280;35385;55.668;37.508;2023-04-23T00:26:57;99019.31;;;10.48;93.11
36600;BME280;35385;55.668;37.508;2023-04-23T00:27:58;99023.69;;;10.49;93.63
36600;BME280;35385;55.668;37.508;2023-04-23T00:28:59;98994.28;;;10.39;93.80
36600;BME280;35385;55.668;37.508;2023-04-23T00:29:59;98979.97;;;10.31;93.78
36600;BME280;35385;55.668;37.508;2023-04-23T00:31:00;99020.88;;;10.50;93.04
36600;BME280;35385;55.668;37.508;2023-04-23T00:32:01;99015.94;;;10.46;93.71
36600;BME280;35385;55.668;37.508;2023-04-23T00:33:02;98994.31;;;10.30;94.14
36600;BME280;35385;55.668;37.508;2023-04-23T00:34:03;99009.91;;;10.44;93.79
36600;BME280;35385;55.668;37.508;2023-04-23T00:35:04;99030.69;;;10.50;93.33
36600;BME280;35385;55.668;37.508;2023-04-23T00:36:07;98974.91;;;10.18;93.31
36600;BME280;35385;55.668;37.508;2023-04-23T00:37:07;99014.25;;;10.45;92.45
36600;BME280;35385;55.668;37.508;2023-04-23T00:38:08;99034.50;;;10.47;93.27
36600;BME280;35385;55.668;37.508;2023-04-23T00:39:08;99009.78;;;10.36;93.90
36600;BME280;35385;55.668;37.508;2023-04-23T00:40:10;99029.41;;;10.54;93.61
36600;BME280;35385;55.668;37.508;2023-04-23T00:41:11;99015.38;;;10.42;93.47
36600;BME280;35385;55.668;37.508;2023-04-23T00:42:12;98966.59;;;10.11;94.09
36600;BME280;35385;55.668;37.508;2023-04-23T00:43:13;98996.13;;;10.29;94.35
36600;BME280;35385;55.668;37.508;2023-04-23T00:44:14;99023.09;;;10.45;94.65
36600;BME280;35385;55.668;37.508;2023-04-23T00:45:15;99030.69;;;10.50;94.75
36600;BME280;35385;55.668;37.508;2023-04-23T00:46:16;99035.75;;;10.53;95.51
36600;BME280;35385;55.668;37.508;2023-04-23T00:47:17;99030.13;;;10.46;96.02
36600;BME280;35385;55.668;37.508;2023-04-23T00:48:20;98972.38;;;10.16;95.53
36600;BME280;35385;55.668;37.508;2023-04-23T00:49:21;99040.25;;;10.52;95.13
36600;BME280;35385;55.668;37.508;2023-04-23T00:50:22;98998.22;;;10.25;93.95
36600;BME280;35385;55.668;37.508;2023-04-23T00:51:23;99025.91;;;10.44;94.50
36600;BME280;35385;55.668;37.508;2023-04-23T00:52:23;99019.88;;;10.32;94.96
36600;BME280;35385;55.668;37.508;2023-04-23T00:53:25;98980.91;;;10.10;96.64
36600;BME280;35385;55.668;37.508;2023-04-23T00:54:26;99025.22;;;10.42;96.46
36600;BME280;35385;55.668;37.508;2023-04-23T00:55:27;99032.53;;;10.49;96.18
36600;BME280;35385;55.668;37.508;2023-04-23T00:56:28;99010.72;;;10.15;96.06
36600;BME280;35385;55.668;37.508;2023-04-23T00:57:28;99029.56;;;10.43;97.01
36600;BME280;35385;55.668;37.508;2023-04-23T00:58:30;98985.72;;;10.16;96.83
36600;BME280;35385;55.668;37.508;2023-04-23T00:59:31;99043.34;;;10.48;96.64
36600;BME280;35385;55.668;37.508;2023-04-23T01:00:34;99040.25;;;10.23;98.00
36600;BME280;35385;55.668;37.508;2023-04-23T01:01:38;99042.09;;;10.23;97.41
36600;BME280;35385;55.668;37.508;2023-04-23T01:02:39;99037.84;;;10.30;97.04
36600;BME280;35385;55.668;37.508;2023-04-23T01:03:42;99046.97;;;10.27;96.71
36600;BME280;35385;55.668;37.508;2023-04-23T01:04:43;98995.25;;;9.90;97.17
36600;BME280;35385;55.668;37.508;2023-04-23T01:05:45;98857.03;;;9.07;97.50
36600;BME280;35385;55.668;37.508;2023-04-23T01:06:46;99031.69;;;10.20;97.23
36600;BME280;35385;55.668;37.508;2023-04-23T01:07:47;99042.72;;;10.15;98.99
36600;BME280;35385;55.668;37.508;2023-04-23T01:08:48;99035.69;;;10.14;99.40
36600;BME280;35385;55.668;37.508;2023-04-23T01:09:49;99015.47;;;10.02;98.87
36600;BME280;35385;55.668;37.508;2023-04-23T01:10:50;99037.72;;;10.22;98.60
36600;BME280;35385;55.668;37.508;2023-04-23T01:11:51;99032.06;;;10.15;98.94
36600;BME280;35385;55.668;37.508;2023-04-23T01:12:52;99029.53;;;10.04;99.63
36600;BME280;35385;55.668;37.508;2023-04-23T01:13:53;98981.59;;;9.74;98.69
36600;BME280;35385;55.668;37.508;2023-04-23T01:14:55;99044.41;;;10.16;98.07
36600;BME280;35385;55.668;37.508;2023-04-23T01:15:56;99043.25;;;10.00;97.27
36600;BME280;35385;55.668;37.508;2023-04-23T01:16:56;99042.59;;;10.07;96.50
36600;BME280;35385;55.668;37.508;2023-04-23T01:17:58;98993.41;;;9.81;96.77
36600;BME280;35385;55.668;37.508;2023-04-23T01:18:58;99043.31;;;10.09;96.07
36600;BME280;35385;55.668;37.508;2023-04-23T01:19:59;98981.72;;;9.72;95.62
36600;BME280;35385;55.668;37.508;2023-04-23T01:21:00;99045.81;;;10.11;95.15
36600;BME280;35385;55.668;37.508;2023-04-23T01:22:01;99037.97;;;10.09;95.45
36600;BME280;35385;55.668;37.508;2023-04-23T01:23:05;99051.84;;;10.13;95.63
36600;BME280;35385;55.668;37.508;2023-04-23T01:24:07;99007.88;;;9.88;96.01
36600;BME280;35385;55.668;37.508;2023-04-23T01:25:08;99043.84;;;10.13;95.93
36600;BME280;35385;55.668;37.508;2023-04-23T01:26:09;99043.97;;;10.11;96.50
36600;BME280;35385;55.668;37.508;2023-04-23T01:27:10;99006.03;;;9.88;94.63
36600;BME280;35385;55.668;37.508;2023-04-23T01:28:11;99029.78;;;10.01;94.33
36600;BME280;35385;55.668;37.508;2023-04-23T01:29:12;99004.88;;;9.72;95.40
36600;BME280;35385;55.668;37.508;2023-04-23T01:30:13;99041.16;;;10.03;95.17
36600;BME280;35385;55.668;37.508;2023-04-23T01:31:15;99044.94;;;10.01;94.65
36600;BME280;35385;55.668;37.508;2023-04-23T01:32:16;99028.50;;;9.96;94.63
36600;BME280;35385;55.668;37.508;2023-04-23T01:33:17;99046.06;;;9.98;94.72
36600;BME280;35385;55.668;37.508;2023-04-23T01:34:18;99004.75;;;9.83;95.13
36600;BME280;35385;55.668;37.508;2023-04-23T01:35:20;99053.97;;;10.09;94.72
36600;BME280;35385;55.668;37.508;2023-04-23T01:36:24;98992.13;;;9.66;94.64
36600;BME280;35385;55.668;37.508;2023-04-23T01:37:25;99042.00;;;9.94;95.08
36600;BME280;35385;55.668;37.508;2023-04-23T01:38:29;99044.38;;;9.97;94.82
36600;BME280;35385;55.668;37.508;2023-04-23T01:39:31;99058.16;;;10.02;94.68
36600;BME280;35385;55.668;37.508;2023-04-23T01:40:31;99031.88;;;9.88;95.60
36600;BME280;35385;55.668;37.508;2023-04-23T01:41:33;99043.41;;;9.98;95.69
36600;BME280;35385;55.668;37.508;2023-04-23T01:42:34;99047.34;;;9.94;95.79
36600;BME280;35385;55.668;37.508;2023-04-23T01:43:34;99014.56;;;9.73;95.54
36600;BME280;35385;55.668;37.508;2023-04-23T01:44:35;98983.94;;;9.57;95.86
36600;BME280;35385;55.668;37.508;2023-04-23T01:45:36;99038.75;;;9.81;97.74
36600;BME280;35385;55.668;37.508;2023-04-23T01:46:37;99052.25;;;9.89;97.49
36600;BME280;35385;55.668;37.508;2023-04-23T01:47:41;99010.63;;;9.67;96.04
36600;BME280;35385;55.668;37.508;2023-04-23T01:48:42;99041.13;;;9.84;96.13
36600;BME280;35385;55.668;37.508;2023-04-23T01:49:42;99055.03;;;9.87;95.77
36600;BME280;35385;55.668;37.508;2023-04-23T01:50:43;99047.16;;;9.86;95.92
36600;BME280;35385;55.668;37.508;2023-04-23T01:51:44;98991.50;;;9.52;96.82
36600;BME280;35385;55.668;37.508;2023-04-23T01:52:44;99050.56;;;9.88;96.97
36600;BME280;35385;55.668;37.508;2023-04-23T01:53:45;98992.91;;;9.56;96.21
36600;BME280;35385;55.668;37.508;2023-04-23T01:54:46;99046.31;;;9.85;95.88
36600;BME280;35385;55.668;37.508;2023-04-23T01:55:47;99055.88;;;9.88;96.41
36600;BME280;35385;55.668;37.508;2023-04-23T01:56:49;98957.78;;;9.32;95.87
36600;BME280;35385;55.668;37.508;2023-04-23T01:57:54;99049.56;;;9.89;96.70
36600;BME280;35385;55.668;37.508;2023-04-23T01:58:55;99044.38;;;9.87;97.39
36600;BME280;35385;55.668;37.508;2023-04-23T02:00:08;98994.91;;;9.64;96.61
36600;BME280;35385;55.668;37.508;2023-04-23T02:01:10;99055.63;;;9.91;97.47
36600;BME280;35385;55.668;37.508;2023-04-23T02:02:11;99040.16;;;9.85;98.27
36600;BME280;35385;55.668;37.508;2023-04-23T02:03:12;99052.69;;;9.94;98.11
36600;BME280;35385;55.668;37.508;2023-04-23T02:04:14;98967.47;;;9.33;98.54
36600;BME280;35385;55.668;37.508;2023-04-23T02:05:17;99050.81;;;9.85;98.27
36600;BME280;35385;55.668;37.508;2023-04-23T02:06:18;99050.56;;;9.88;99.63
36600;BME280;35385;55.668;37.508;2023-04-23T02:07:18;98983.94;;;9.48;99.04
36600;BME280;35385;55.668;37.508;2023-04-23T02:08:19;99004.75;;;9.64;98.83
36600;BME280;35385;55.668;37.508;2023-04-23T02:09:20;99059.13;;;9.91;98.51
36600;BME280;35385;55.668;37.508;2023-04-23T02:10:20;99050.00;;;9.94;98.55
36600;BME280;35385;55.668;37.508;2023-04-23T02:11:21;99055.06;;;9.97;97.94
36600;BME280;35385;55.668;37.508;2023-04-23T02:12:22;99061.94;;;9.90;97.70
36600;BME280;35385;55.668;37.508;2023-04-23T02:13:23;99059.13;;;10.01;97.55
36600;BME280;35385;55.668;37.508;2023-04-23T02:14:23;99020.34;;;9.78;96.95
36600;BME280;35385;55.668;37.508;2023-04-23T02:15:24;99054.38;;;10.05;96.13
36600;BME280;35385;55.668;37.508;2023-04-23T02:16:25;99059.72;;;9.95;96.21
36600;BME280;35385;55.668;37.508;2023-04-23T02:17:28;99064.03;;;9.96;96.40
36600;BME280;35385;55.668;37.508;2023-04-23T02:18:28;99050.03;;;10.04;95.94
36600;BME280;35385;55.668;37.508;2023-04-23T02:19:29;99060.44;;;10.16;95.82
36600;BME280;35385;55.668;37.508;2023-04-23T02:20:33;99062.59;;;10.22;95.18
36600;BME280;35385;55.668;37.508;2023-04-23T02:21:38;99059.91;;;10.22;94.84
36600;BME280;35385;55.668;37.508;2023-04-23T02:22:40;99075.63;;;10.25;95.88
36600;BME280;35385;55.668;37.508;2023-04-23T02:23:41;99029.25;;;10.07;95.40
36600;BME280;35385;55.668;37.508;2023-04-23T02:24:42;99060.75;;;10.33;95.72
36600;BME280;35385;55.668;37.508;2023-04-23T02:25:43;99068.06;;;10.31;95.54
36600;BME280;35385;55.668;37.508;2023-04-23T02:26:44;99024.44;;;10.11;95.43
36600;BME280;35385;55.668;37.508;2023-04-23T02:27:44;99025.47;;;10.10;96.13
36600;BME280;35385;55.668;37.508;2023-04-23T02:28:45;99064.56;;;10.30;97.92
36600;BME280;35385;55.668;37.508;2023-04-23T02:29:47;99049.78;;;10.26;98.30
36600;BME280;35385;55.668;37.508;2023-04-23T02:30:47;99035.44;;;10.17;99.45
36600;BME280;35385;55.668;37.508;2023-04-23T02:31:48;99040.94;;;10.25;99.77
36600;BME280;35385;55.668;37.508;2023-04-23T02:32:48;99078.59;;;10.42;99.14
36600;BME280;35385;55.668;37.508;2023-04-23T02:33:49;99077.91;;;10.40;99.32
36600;BME280;35385;55.668;37.508;2023-04-23T02:34:50;99067.53;;;10.37;99.88
36600;BME280;35385;55.668;37.508;2023-04-23T02:35:51;99075.94;;;10.42;98.71
36600;BME280;35385;55.668;37.508;2023-04-23T02:36:52;99058.22;;;10.41;97.40
36600;BME280;35385;55.668;37.508;2023-04-23T02:37:53;99068.09;;;10.50;95.56
36600;BME280;35385;55.668;37.508;2023-04-23T02:38:54;99072.28;;;10.43;95.39
36600;BME280;35385;55.668;37.508;2023-04-23T02:39:54;99027.59;;;10.25;94.54
36600;BME280;35385;55.668;37.508;2023-04-23T02:40:55;99074.97;;;10.62;95.31
36600;BME280;35385;55.668;37.508;2023-04-23T02:41:55;99072.56;;;10.59;96.14
36600;BME280;35385;55.668;37.508;2023-04-23T02:42:57;99073.72;;;10.66;95.01
36600;BME280;35385;55.668;37.508;2023-04-23T02:43:57;99075.94;;;10.71;94.63
36600;BME280;35385;55.668;37.508;2023-04-23T02:44:58;99055.56;;;10.60;95.20
36600;BME280;35385;55.668;37.508;2023-04-23T02:45:59;99081.56;;;10.77;95.25
36600;BME280;35385;55.668;37.508;2023-04-23T02:47:00;99076.50;;;10.74;94.42
36600;BME280;35385;55.668;37.508;2023-04-23T02:48:00;99077.31;;;10.84;93.44
36600;BME280;35385;55.668;37.508;2023-04-23T02:49:01;99080.72;;;10.86;93.60
36600;BME280;35385;55.668;37.508;2023-04-23T02:50:05;99079.44;;;10.90;93.54
36600;BME280;35385;55.668;37.508;2023-04-23T02:51:11;99088.97;;;11.03;92.94
36600;BME280;35385;55.668;37.508;2023-04-23T02:52:12;99069.63;;;10.81;92.49
36600;BME280;35385;55.668;37.508;2023-04-23T02:53:13;99080.16;;;10.73;94.71
36600;BME280;35385;55.668;37.508;2023-04-23T02:54:15;99026.47;;;10.57;87.48
36600;BME280;35385;55.668;37.508;2023-04-23T02:55:16;99077.47;;;10.92;83.06
36600;BME280;35385;55.668;37.508;2023-04-23T02:56:16;99068.88;;;10.98;88.44
36600;BME280;35385;55.668;37.508;2023-04-23T02:57:17;99023.94;;;10.65;92.89
36600;BME280;35385;55.668;37.508;2023-04-23T02:58:18;99051.59;;;10.83;85.70
36600;BME280;35385;55.668;37.508;2023-04-23T02:59:19;99080.09;;;11.12;81.73
36600;BME280;35385;55.668;37.508;2023-04-23T03:00:19;99043.88;;;10.90;80.35
36600;BME280;35385;55.668;37.508;2023-04-23T03:01:20;99058.50;;;10.95;79.83
36600;BME280;35385;55.668;37.508;2023-04-23T03:02:20;99069.53;;;11.20;79.59
36600;BME280;35385;55.668;37.508;2023-04-23T03:03:21;99090.31;;;11.26;78.53
36600;BME280;35385;55.668;37.508;2023-04-23T03:04:25;99037.94;;;11.06;78.12
36600;BME280;35385;55.668;37.508;2023-04-23T03:05:26;99028.22;;;11.05;77.41
36600;BME280;35385;55.668;37.508;2023-04-23T03:06:28;99087.19;;;11.40;77.14
36600;BME280;35385;55.668;37.508;2023-04-23T03:07:28;99075.97;;;11.37;76.58
36600;BME280;35385;55.668;37.508;2023-04-23T03:08:29;99035.69;;;11.11;76.01
36600;BME280;35385;55.668;37.508;2023-04-23T03:09:30;99096.06;;;11.50;75.77
36600;BME280;35385;55.668;37.508;2023-04-23T03:10:30;99092.66;;;11.48;75.67
36600;BME280;35385;55.668;37.508;2023-04-23T03:11:31;99040.41;;;11.17;75.20
36600;BME280;35385;55.668;37.508;2023-04-23T03:12:31;99039.84;;;11.23;75.29
36600;BME280;35385;55.668;37.508;2023-04-23T03:13:32;99098.97;;;11.57;75.03
36600;BME280;35385;55.668;37.508;2023-04-23T03:14:33;99089.41;;;11.54;74.89
36600;BME280;35385;55.668;37.508;2023-04-23T03:15:33;99085.22;;;11.42;74.74
36600;BME280;35385;55.668;37.508;2023-04-23T03:16:34;99087.31;;;11.48;74.69
36600;BME280;35385;55.668;37.508;2023-04-23T03:17:35;99076.63;;;11.48;75.78
36600;BME280;35385;55.668;37.508;2023-04-23T03:18:37;99098.25;;;11.64;75.36
36600;BME280;35385;55.668;37.508;2023-04-23T03:19:38;99098.53;;;11.61;74.90
36600;BME280;35385;55.668;37.508;2023-04-23T03:20:38;99083.63;;;11.59;75.02
36600;BME280;35385;55.668;37.508;2023-04-23T03:21:40;99098.25;;;11.64;74.58
36600;BME280;35385;55.668;37.508;2023-04-23T03:22:40;99110.63;;;11.65;73.91
36600;BME280;35385;55.668;37.508;2023-04-23T03:23:41;99072.97;;;11.49;74.25
36600;BME280;35385;55.668;37.508;2023-04-23T03:24:42;99096.56;;;11.63;74.10
36600;BME280;35385;55.668;37.508;2023-04-23T03:25:42;99097.13;;;11.67;73.44
36600;BME280;35385;55.668;37.508;2023-04-23T03:26:43;99060.53;;;11.58;74.08
36600;BME280;35385;55.668;37.508;2023-04-23T03:27:44;99108.72;;;11.95;73.79
36600;BME280;35385;55.668;37.508;2023-04-23T03:28:44;99112.47;;;12.02;74.55
36600;BME280;35385;55.668;37.508;2023-04-23T03:29:45;99117.59;;;12.13;75.45
36600;BME280;35385;55.668;37.508;2023-04-23T03:30:46;99115.47;;;12.17;73.76
36600;BME280;35385;55.668;37.508;2023-04-23T03:31:46;99120.47;;;12.29;73.12
36600;BME280;35385;55.668;37.508;2023-04-23T03:32:47;99100.88;;;12.29;73.10
36600;BME280;35385;55.668;37.508;2023-04-23T03:33:47;99066.38;;;12.08;72.50
36600;BME280;35385;55.668;37.508;2023-04-23T03:34:48;99067.34;;;12.07;75.03
36600;BME280;35385;55.668;37.508;2023-04-23T03:35:48;99121.28;;;12.39;75.04
36600;BME280;35385;55.668;37.508;2023-04-23T03:36:49;99124.47;;;12.43;74.68
36600;BME280;35385;55.668;37.508;2023-04-23T03:37:50;99120.56;;;12.37;73.91
36600;BME280;35385;55.668;37.508;2023-04-23T03:38:51;99111.25;;;12.14;77.48
36600;BME280;35385;55.668;37.508;2023-04-23T03:39:51;99114.09;;;12.13;78.46
36600;BME280;35385;55.668;37.508;2023-04-23T03:40:52;99112.09;;;12.15;75.80
36600;BME280;35385;55.668;37.508;2023-04-23T03:41:53;99112.09;;;12.15;74.62
36600;BME280;35385;55.668;37.508;2023-04-23T03:42:53;99119.78;;;12.27;73.42
36600;BME280;35385;55.668;37.508;2023-04-23T03:43:54;99119.47;;;12.30;74.91
36600;BME280;35385;55.668;37.508;2023-04-23T03:44:55;99070.72;;;12.09;75.73
36600;BME280;35385;55.668;37.508;2023-04-23T03:45:55;99130.22;;;12.48;75.15
36600;BME280;35385;55.668;37.508;2023-04-23T03:46:56;99130.78;;;12.52;73.34
36600;BME280;35385;55.668;37.508;2023-04-23T03:47:56;98987.31;;;11.59;72.03
36600;BME280;35385;55.668;37.508;2023-04-23T03:48:57;99126.41;;;12.51;71.33
36600;BME280;35385;55.668;37.508;2023-04-23T03:49:57;99131.84;;;12.59;74.37
36600;BME280;35385;55.668;37.508;2023-04-23T03:50:58;99088.19;;;12.31;76.46
36600;BME280;35385;55.668;37.508;2023-04-23T03:51:58;99132.75;;;12.50;76.71
36600;BME280;35385;55.668;37.508;2023-04-23T03:52:59;99125.00;;;12.47;76.67
36600;BME280;35385;55.668;37.508;2023-04-23T03:54:00;99133.31;;;12.53;77.30
36600;BME280;35385;55.668;37.508;2023-04-23T03:55:01;99141.94;;;12.65;78.25
36600;BME280;35385;55.668;37.508;2023-04-23T03:56:02;99130.28;;;12.56;75.83
36600;BME280;35385;55.668;37.508;2023-04-23T03:57:03;99136.34;;;12.58;71.75
36600;BME280;35385;55.668;37.508;2023-04-23T03:58:03;99050.91;;;12.02;70.21
36600;BME280;35385;55.668;37.508;2023-04-23T03:59:04;99136.97;;;12.52;69.78
36600;BME280;35385;55.668;37.508;2023-04-23T04:00:05;99093.31;;;12.24;69.73
36600;BME280;35385;55.668;37.508;2023-04-23T04:01:15;99091.72;;;12.31;68.75
36600;BME280;35385;55.668;37.508;2023-04-23T04:02:16;99137.75;;;12.80;67.85
36600;BME280;35385;55.668;37.508;2023-04-23T04:03:16;99104.34;;;12.74;66.68
36600;BME280;35385;55.668;37.508;2023-04-23T04:04:17;99131.59;;;13.23;67.22
36600;BME280;35385;55.668;37.508;2023-04-23T04:05:17;99139.16;;;13.28;66.49
36600;BME280;35385;55.668;37.508;2023-04-23T04:06:18;99139.03;;;13.12;65.36
36600;BME280;35385;55.668;37.508;2023-04-23T04:07:19;99147.75;;;13.14;65.16
36600;BME280;35385;55.668;37.508;2023-04-23T04:08:19;99138.56;;;13.16;64.64
36600;BME280;35385;55.668;37.508;2023-04-23T04:09:21;99057.34;;;12.62;65.73
36600;BME280;35385;55.668;37.508;2023-04-23T04:10:22;99143.41;;;13.13;64.59
36600;BME280;35385;55.668;37.508;2023-04-23T04:11:23;99135.75;;;13.18;63.44
36600;BME280;35385;55.668;37.508;2023-04-23T04:12:23;99139.50;;;13.25;63.38
36600;BME280;35385;55.668;37.508;2023-04-23T04:13:24;99143.50;;;13.21;63.74
36600;BME280;35385;55.668;37.508;2023-04-23T04:14:24;99133.66;;;13.12;64.20
36600;BME280;35385;55.668;37.508;2023-04-23T04:15:25;99141.34;;;13.24;64.50
36600;BME280;35385;55.668;37.508;2023-04-23T04:16:26;99154.06;;;13.22;65.19
36600;BME280;35385;55.668;37.508;2023-04-23T04:17:27;99142.78;;;13.19;64.20
36600;BME280;35385;55.668;37.508;2023-04-23T04:18:27;99140.41;;;13.16;63.77
36600;BME280;35385;55.668;37.508;2023-04-23T04:19:28;99136.91;;;13.15;63.76
36600;BME280;35385;55.668;37.508;2023-04-23T04:20:28;99139.13;;;13.20;64.20
36600;BME280;35385;55.668;37.508;2023-04-23T04:21:29;99142.22;;;13.33;63.99
36600;BME280;35385;55.668;37.508;2023-04-23T04:22:31;99152.28;;;13.57;63.43
36600;BME280;35385;55.668;37.508;2023-04-23T04:23:31;99144.03;;;13.50;63.63
36600;BME280;35385;55.668;37.508;2023-04-23T04:24:33;99106.06;;;13.37;63.90
36600;BME280;35385;55.668;37.508;2023-04-23T04:25:34;99159.81;;;13.53;63.13
36600;BME280;35385;55.668;37.508;2023-04-23T04:26:39;99101.19;;;13.15;62.98
36600;BME280;35385;55.668;37.508;2023-04-23T04:27:40;99036.38;;;12.75;63.05
36600;BME280;35385;55.668;37.508;2023-04-23T04:28:41;99140.34;;;13.51;62.54
36600;BME280;35385;55.668;37.508;2023-04-23T04:29:41;99153.47;;;13.54;62.25
36600;BME280;35385;55.668;37.508;2023-04-23T04:30:42;99151.81;;;13.61;62.35
36600;BME280;35385;55.668;37.508;2023-04-23T04:31:43;99118.78;;;13.35;62.18
36600;BME280;35385;55.668;37.508;2023-04-23T04:32:43;99142.97;;;13.43;62.72
36600;BME280;35385;55.668;37.508;2023-04-23T04:33:45;99138.25;;;13.37;63.28
36600;BME280;35385;55.668;37.508;2023-04-23T04:34:45;99157.16;;;13.53;63.38
36600;BME280;35385;55.668;37.508;2023-04-23T04:35:46;99106.69;;;13.31;63.67
36600;BME280;35385;55.668;37.508;2023-04-23T04:36:49;99144.91;;;13.59;62.91
36600;BME280;35385;55.668;37.508;2023-04-23T04:37:53;99148.44;;;13.59;64.58
36600;BME280;35385;55.668;37.508;2023-04-23T04:38:54;99167.19;;;13.77;64.03
36600;BME280;35385;55.668;37.508;2023-04-23T04:39:58;99162.06;;;13.92;62.16
36600;BME280;35385;55.668;37.508;2023-04-23T04:41:00;99132.13;;;13.78;60.61
36600;BME280;35385;55.668;37.508;2023-04-23T04:42:02;99013.84;;;13.12;60.22
36600;BME280;35385;55.668;37.508;2023-04-23T04:43:03;99159.25;;;14.01;59.31
36600;BME280;35385;55.668;37.508;2023-04-23T04:44:04;99170.66;;;14.03;58.53
36600;BME280;35385;55.668;37.508;2023-04-23T04:45:05;99180.53;;;13.95;59.49
36600;BME280;35385;55.668;37.508;2023-04-23T04:46:07;99084.59;;;13.37;58.79
36600;BME280;35385;55.668;37.508;2023-04-23T04:47:11;99172.66;;;13.93;59.36
36600;BME280;35385;55.668;37.508;2023-04-23T04:48:12;99126.38;;;13.73;58.46
36600;BME280;35385;55.668;37.508;2023-04-23T04:49:13;99124.44;;;13.84;58.31
36600;BME280;35385;55.668;37.508;2023-04-23T04:50:14;99169.22;;;14.17;58.61
36600;BME280;35385;55.668;37.508;2023-04-23T04:51:15;99174.91;;;14.14;58.20
36600;BME280;35385;55.668;37.508;2023-04-23T04:52:15;99172.13;;;14.24;58.14
36600;BME280;35385;55.668;37.508;2023-04-23T04:53:16;99172.81;;;14.26;59.04
36600;BME280;35385;55.668;37.508;2023-04-23T04:54:17;99173.28;;;14.29;59.38
36600;BME280;35385;55.668;37.508;2023-04-23T04:55:17;99173.41;;;14.45;60.31
36600;BME280;35385;55.668;37.508;2023-04-23T04:56:18;99167.75;;;14.57;58.92
36600;BME280;35385;55.668;37.508;2023-04-23T04:57:19;99137.81;;;14.52;58.11
36600;BME280;35385;55.668;37.508;2023-04-23T04:58:22;99177.50;;;14.74;57.40
36600;BME280;35385;55.668;37.508;2023-04-23T04:59:22;99143.94;;;15.10;56.05
36600;BME280;35385;55.668;37.508;2023-04-23T05:00:25;99182.56;;;15.90;52.85
36600;BME280;35385;55.668;37.508;2023-04-23T05:01:29;99174.31;;;16.00;50.63
36600;BME280;35385;55.668;37.508;2023-04-23T05:02:30;99173.03;;;16.27;49.09
36600;BME280;35385;55.668;37.508;2023-04-23T05:03:30;99184.16;;;16.63;49.31
36600;BME280;35385;55.668;37.508;2023-04-23T05:04:31;99189.63;;;16.47;49.81
36600;BME280;35385;55.668;37.508;2023-04-23T05:05:33;99179.66;;;16.08;48.68
36600;BME280;35385;55.668;37.508;2023-04-23T05:06:33;99179.75;;;15.76;49.52
36600;BME280;35385;55.668;37.508;2023-04-23T05:07:34;99185.16;;;15.43;50.43
36600;BME280;35385;55.668;37.508;2023-04-23T05:08:35;99186.31;;;15.33;51.36
36600;BME280;35385;55.668;37.508;2023-04-23T05:09:36;99141.41;;;15.01;52.67
36600;BME280;35385;55.668;37.508;2023-04-23T05:10:37;99190.69;;;15.34;51.59
36600;BME280;35385;55.668;37.508;2023-04-23T05:11:38;99196.41;;;15.47;50.71
36600;BME280;35385;55.668;37.508;2023-04-23T05:12:41;99193.41;;;15.58;50.83
36600;BME280;35385;55.668;37.508;2023-04-23T05:13:46;99181.59;;;15.59;50.76
36600;BME280;35385;55.668;37.508;2023-04-23T05:14:46;99184.31;;;15.43;51.67
36600;BME280;35385;55.668;37.508;2023-04-23T05:15:47;99185.13;;;15.35;51.63
36600;BME280;35385;55.668;37.508;2023-04-23T05:16:48;99202.97;;;15.36;51.54
36600;BME280;35385;55.668;37.508;2023-04-23T05:17:48;99193.53;;;15.16;51.14
36600;BME280;35385;55.668;37.508;2023-04-23T05:18:52;99190.84;;;15.08;52.24
36600;BME280;35385;55.668;37.508;2023-04-23T05:19:52;99192.19;;;15.04;52.20
36600;BME280;35385;55.668;37.508;2023-04-23T05:20:53;99198.41;;;14.96;52.58